sensor_id;sensor_type;location;lat;lon;timestamp;pressure;altitude;pressure_sealevel;temperature;humidity
67434;BME280;54305;47.950;6.572;2023-02-11T00:00:03;96187.94;;;-2.10;90.86
67434;BME280;54305;47.950;6.572;2023-02-11T00:02:30;96190.69;;;-2.18;92.20
67434;BME280;54305;47.950;6.572;2023-02-11T00:04:55;96185.25;;;-2.06;94.58
67434;BME280;54305;47.950;6.572;2023-02-11T00:07:20;96188.66;;;-1.75;93.63
67434;BME280;54305;47.950;6.572;2023-02-11T00:09:46;96174.75;;;-1.66;92.85
67434;BME280;54305;47.950;6.572;2023-02-11T00:12:11;96177.34;;;-1.68;91.65
67434;BME280;54305;47.950;6.572;2023-02-11T00:14:36;96171.91;;;-1.85;90.44
67434;BME280;54305;47.950;6.572;2023-02-11T00:17:02;96172.94;;;-1.92;91.75
67434;BME280;54305;47.950;6.572;2023-02-11T00:19:27;96169.69;;;-1.97;92.24
67434;BME280;54305;47.950;6.572;2023-02-11T00:21:52;96171.53;;;-2.02;92.26
67434;BME280;54305;47.950;6.572;2023-02-11T00:24:17;96176.97;;;-1.83;94.08
67434;BME280;54305;47.950;6.572;2023-02-11T00:26:43;96172.69;;;-1.83;93.70
67434;BME280;54305;47.950;6.572;2023-02-11T00:29:08;96175.59;;;-1.95;91.87
67434;BME280;54305;47.950;6.572;2023-02-11T00:31:34;96166.53;;;-2.05;92.35
67434;BME280;54305;47.950;6.572;2023-02-11T00:33:59;96163.34;;;-2.13;92.20
67434;BME280;54305;47.950;6.572;2023-02-11T00:36:26;96159.13;;;-2.14;93.51
67434;BME280;54305;47.950;6.572;2023-02-11T00:38:52;96169.53;;;-2.21;92.92
67434;BME280;54305;47.950;6.572;2023-02-11T00:41:17;96177.41;;;-2.29;93.26
67434;BME280;54305;47.950;6.572;2023-02-11T00:43:43;96179.94;;;-2.29;95.01
67434;BME280;54305;47.950;6.572;2023-02-11T00:46:08;96170.03;;;-2.09;96.38
67434;BME280;54305;47.950;6.572;2023-02-11T00:48:34;96169.00;;;-2.03;94.66
67434;BME280;54305;47.950;6.572;2023-02-11T00:50:59;96169.44;;;-1.88;93.98
67434;BME280;54305;47.950;6.572;2023-02-11T00:53:25;96165.22;;;-1.89;91.99
67434;BME280;54305;47.950;6.572;2023-02-11T00:55:50;96162.28;;;-1.77;93.00
67434;BME280;54305;47.950;6.572;2023-02-11T00:58:15;96158.97;;;-1.79;90.81
67434;BME280;54305;47.950;6.572;2023-02-11T01:00:41;96159.25;;;-1.89;91.86
67434;BME280;54305;47.950;6.572;2023-02-11T01:03:06;96166.44;;;-2.02;91.69
67434;BME280;54305;47.950;6.572;2023-02-11T01:05:32;96160.56;;;-2.05;92.04
67434;BME280;54305;47.950;6.572;2023-02-11T01:07:57;96161.75;;;-2.17;91.28
67434;BME280;54305;47.950;6.572;2023-02-11T01:10:22;96171.41;;;-2.28;91.83
67434;BME280;54305;47.950;6.572;2023-02-11T01:12:48;96174.03;;;-2.31;93.50
67434;BME280;54305;47.950;6.572;2023-02-11T01:15:14;96168.47;;;-2.14;94.16
67434;BME280;54305;47.950;6.572;2023-02-11T01:17:40;96164.94;;;-2.09;93.58
67434;BME280;54305;47.950;6.572;2023-02-11T01:20:05;96174.19;;;-2.05;92.12
67434;BME280;54305;47.950;6.572;2023-02-11T01:22:32;96174.31;;;-2.11;94.83
67434;BME280;54305;47.950;6.572;2023-02-11T01:24:58;96179.31;;;-2.06;92.89
67434;BME280;54305;47.950;6.572;2023-02-11T01:27:23;96175.13;;;-2.09;93.03
67434;BME280;54305;47.950;6.572;2023-02-11T01:29:49;96172.19;;;-1.95;93.39
67434;BME280;54305;47.950;6.572;2023-02-11T01:32:14;96172.94;;;-1.92;92.83
67434;BME280;54305;47.950;6.572;2023-02-11T01:34:39;96169.78;;;-2.00;93.17
67434;BME280;54305;47.950;6.572;2023-02-11T01:37:05;96171.47;;;-1.99;92.75
67434;BME280;54305;47.950;6.572;2023-02-11T01:39:31;96160.53;;;-2.04;92.97
67434;BME280;54305;47.950;6.572;2023-02-11T01:41:57;96170.78;;;-2.05;94.28
67434;BME280;54305;47.950;6.572;2023-02-11T01:46:53;96158.88;;;-1.76;92.29
67434;BME280;54305;47.950;6.572;2023-02-11T01:49:29;96158.63;;;-1.67;92.56
67434;BME280;54305;47.950;6.572;2023-02-11T01:52:02;96157.38;;;-1.83;90.37
67434;BME280;54305;47.950;6.572;2023-02-11T01:54:30;96167.31;;;-2.03;92.41
67434;BME280;54305;47.950;6.572;2023-02-11T01:57:16;96168.44;;;-2.13;92.69
67434;BME280;54305;47.950;6.572;2023-02-11T02:02:17;96153.81;;;-1.77;92.87
67434;BME280;54305;47.950;6.572;2023-02-11T02:04:52;96145.31;;;-1.78;91.80
67434;BME280;54305;47.950;6.572;2023-02-11T02:07:25;96146.63;;;-1.94;91.69
67434;BME280;54305;47.950;6.572;2023-02-11T02:09:55;96130.94;;;-2.11;91.58
67434;BME280;54305;47.950;6.572;2023-02-11T02:12:22;96133.88;;;-2.24;91.83
67434;BME280;54305;47.950;6.572;2023-02-11T02:14:47;96132.44;;;-2.33;92.40
67434;BME280;54305;47.950;6.572;2023-02-11T02:17:17;96134.31;;;-2.39;92.63
67434;BME280;54305;47.950;6.572;2023-02-11T02:20:02;96123.41;;;-2.46;92.10
67434;BME280;54305;47.950;6.572;2023-02-11T02:27:54;96121.31;;;-2.62;95.08
67434;BME280;54305;47.950;6.572;2023-02-11T02:35:51;96135.72;;;-1.99;92.22
67434;BME280;54305;47.950;6.572;2023-02-11T02:38:20;96134.50;;;-2.15;91.41
67434;BME280;54305;47.950;6.572;2023-02-11T02:40:48;96135.91;;;-2.35;91.15
67434;BME280;54305;47.950;6.572;2023-02-11T02:43:16;96134.63;;;-2.51;92.26
67434;BME280;54305;47.950;6.572;2023-02-11T02:45:42;96133.38;;;-2.37;95.42
67434;BME280;54305;47.950;6.572;2023-02-11T02:48:21;96127.44;;;-2.07;95.34
67434;BME280;54305;47.950;6.572;2023-02-11T02:50:46;96123.28;;;-1.82;93.68
67434;BME280;54305;47.950;6.572;2023-02-11T02:53:25;96128.31;;;-1.79;92.48
67434;BME280;54305;47.950;6.572;2023-02-11T02:56:12;96119.31;;;-1.90;92.48
67434;BME280;54305;47.950;6.572;2023-02-11T03:01:23;96121.88;;;-1.92;93.37
67434;BME280;54305;47.950;6.572;2023-02-11T03:06:22;96118.09;;;-2.08;92.92
67434;BME280;54305;47.950;6.572;2023-02-11T03:08:55;96107.13;;;-2.10;94.02
67434;BME280;54305;47.950;6.572;2023-02-11T03:11:21;96099.09;;;-1.98;94.57
67434;BME280;54305;47.950;6.572;2023-02-11T03:13:47;96094.84;;;-1.97;92.63
67434;BME280;54305;47.950;6.572;2023-02-11T03:16:18;96094.00;;;-1.98;93.28
67434;BME280;54305;47.950;6.572;2023-02-11T03:18:49;96087.94;;;-1.94;93.32
67434;BME280;54305;47.950;6.572;2023-02-11T03:21:17;96079.75;;;-2.05;92.90
67434;BME280;54305;47.950;6.572;2023-02-11T03:23:47;96085.38;;;-2.23;92.51
67434;BME280;54305;47.950;6.572;2023-02-11T03:26:30;96077.97;;;-2.32;92.53
67434;BME280;54305;47.950;6.572;2023-02-11T03:29:02;96069.06;;;-2.48;93.89
67434;BME280;54305;47.950;6.572;2023-02-11T03:31:35;96056.84;;;-2.37;96.07
67434;BME280;54305;47.950;6.572;2023-02-11T03:34:12;96048.50;;;-2.13;94.89
67434;BME280;54305;47.950;6.572;2023-02-11T03:39:10;96048.91;;;-2.26;93.74
67434;BME280;54305;47.950;6.572;2023-02-11T03:41:36;96043.47;;;-2.45;92.89
67434;BME280;54305;47.950;6.572;2023-02-11T03:44:03;96039.19;;;-2.43;94.02
67434;BME280;54305;47.950;6.572;2023-02-11T03:46:31;96038.66;;;-2.54;95.56
67434;BME280;54305;47.950;6.572;2023-02-11T03:49:04;96042.16;;;-2.58;93.80
67434;BME280;54305;47.950;6.572;2023-02-11T03:51:33;96048.28;;;-2.65;95.36
67434;BME280;54305;47.950;6.572;2023-02-11T03:54:01;96041.28;;;-2.57;96.33
67434;BME280;54305;47.950;6.572;2023-02-11T03:56:28;96041.91;;;-2.49;99.75
67434;BME280;54305;47.950;6.572;2023-02-11T03:58:55;96036.72;;;-2.17;96.49
67434;BME280;54305;47.950;6.572;2023-02-11T04:01:20;96035.75;;;-2.13;95.13
67434;BME280;54305;47.950;6.572;2023-02-11T04:03:46;96042.03;;;-2.24;94.64
67434;BME280;54305;47.950;6.572;2023-02-11T04:06:11;96036.63;;;-2.43;94.59
67434;BME280;54305;47.950;6.572;2023-02-11T04:08:36;96040.47;;;-2.59;94.64
67434;BME280;54305;47.950;6.572;2023-02-11T04:11:02;96039.16;;;-2.41;97.26
67434;BME280;54305;47.950;6.572;2023-02-11T04:13:27;96039.97;;;-2.41;97.84
67434;BME280;54305;47.950;6.572;2023-02-11T04:15:52;96041.56;;;-2.37;97.60
67434;BME280;54305;47.950;6.572;2023-02-11T04:18:18;96028.34;;;-2.22;97.96
67434;BME280;54305;47.950;6.572;2023-02-11T04:20:43;96034.41;;;-2.26;96.16
67434;BME280;54305;47.950;6.572;2023-02-11T04:23:08;96031.44;;;-2.40;97.47
67434;BME280;54305;47.950;6.572;2023-02-11T04:25:34;96028.88;;;-2.40;97.04
67434;BME280;54305;47.950;6.572;2023-02-11T04:27:59;96036.53;;;-2.40;97.62
67434;BME280;54305;47.950;6.572;2023-02-11T04:30:25;96041.00;;;-2.46;96.34
67434;BME280;54305;47.950;6.572;2023-02-11T04:32:50;96043.75;;;-2.54;96.70
67434;BME280;54305;47.950;6.572;2023-02-11T04:35:15;96046.63;;;-2.66;95.67
67434;BME280;54305;47.950;6.572;2023-02-11T04:37:40;96050.59;;;-2.56;99.89
67434;BME280;54305;47.950;6.572;2023-02-11T04:40:06;96063.81;;;-2.42;98.26
67434;BME280;54305;47.950;6.572;2023-02-11T04:42:34;96062.31;;;-2.49;96.83
67434;BME280;54305;47.950;6.572;2023-02-11T04:45:00;96064.78;;;-2.47;97.18
67434;BME280;54305;47.950;6.572;2023-02-11T04:47:25;96067.50;;;-2.52;97.37
67434;BME280;54305;47.950;6.572;2023-02-11T04:49:51;96081.41;;;-2.33;97.98
67434;BME280;54305;47.950;6.572;2023-02-11T04:52:16;96075.34;;;-2.29;97.03
67434;BME280;54305;47.950;6.572;2023-02-11T04:54:41;96082.19;;;-2.31;96.72
67434;BME280;54305;47.950;6.572;2023-02-11T04:57:06;96084.13;;;-2.39;96.61
67434;BME280;54305;47.950;6.572;2023-02-11T04:59:32;96087.66;;;-2.43;97.05
67434;BME280;54305;47.950;6.572;2023-02-11T05:01:57;96090.22;;;-2.44;96.96
67434;BME280;54305;47.950;6.572;2023-02-11T05:04:22;96084.38;;;-2.48;97.28
67434;BME280;54305;47.950;6.572;2023-02-11T05:06:48;96085.38;;;-2.53;97.53
67434;BME280;54305;47.950;6.572;2023-02-11T05:09:13;96088.19;;;-2.64;97.33
67434;BME280;54305;47.950;6.572;2023-02-11T05:11:39;96087.56;;;-2.70;97.08
67434;BME280;54305;47.950;6.572;2023-02-11T05:14:05;96097.06;;;-2.77;97.78
67434;BME280;54305;47.950;6.572;2023-02-11T05:16:30;96088.78;;;-2.85;98.48
67434;BME280;54305;47.950;6.572;2023-02-11T05:18:55;96092.28;;;-2.89;99.22
67434;BME280;54305;47.950;6.572;2023-02-11T05:21:21;96087.28;;;-2.92;100.00
67434;BME280;54305;47.950;6.572;2023-02-11T05:23:46;96086.59;;;-2.98;100.00
67434;BME280;54305;47.950;6.572;2023-02-11T05:26:12;96081.47;;;-2.98;100.00
67434;BME280;54305;47.950;6.572;2023-02-11T05:28:37;96072.72;;;-2.88;100.00
67434;BME280;54305;47.950;6.572;2023-02-11T05:31:03;96074.25;;;-2.51;100.00
67434;BME280;54305;47.950;6.572;2023-02-11T05:33:29;96072.94;;;-2.35;99.99
67434;BME280;54305;47.950;6.572;2023-02-11T05:36:01;96070.25;;;-2.29;99.18
67434;BME280;54305;47.950;6.572;2023-02-11T05:38:27;96063.44;;;-2.30;99.88
67434;BME280;54305;47.950;6.572;2023-02-11T05:40:52;96070.38;;;-2.35;99.80
67434;BME280;54305;47.950;6.572;2023-02-11T05:43:21;96067.19;;;-2.41;99.93
67434;BME280;54305;47.950;6.572;2023-02-11T05:45:46;96063.38;;;-2.27;100.00
67434;BME280;54305;47.950;6.572;2023-02-11T05:48:12;96072.09;;;-2.34;100.00
67434;BME280;54305;47.950;6.572;2023-02-11T05:50:37;96075.59;;;-2.38;100.00
67434;BME280;54305;47.950;6.572;2023-02-11T05:53:03;96063.38;;;-2.27;100.00
67434;BME280;54305;47.950;6.572;2023-02-11T05:55:28;96060.88;;;-2.30;100.00
67434;BME280;54305;47.950;6.572;2023-02-11T05:57:53;96062.22;;;-2.17;100.00
67434;BME280;54305;47.950;6.572;2023-02-11T06:00:18;96043.91;;;-2.02;100.00
67434;BME280;54305;47.950;6.572;2023-02-11T06:02:44;96031.56;;;-1.88;100.00
67434;BME280;54305;47.950;6.572;2023-02-11T06:05:09;96034.47;;;-1.71;100.00
67434;BME280;54305;47.950;6.572;2023-02-11T06:07:34;96026.44;;;-1.60;100.00
67434;BME280;54305;47.950;6.572;2023-02-11T06:10:00;96033.50;;;-1.41;100.00
67434;BME280;54305;47.950;6.572;2023-02-11T06:12:25;96027.97;;;-1.29;97.73
67434;BME280;54305;47.950;6.572;2023-02-11T06:14:51;96026.75;;;-1.17;95.54
67434;BME280;54305;47.950;6.572;2023-02-11T06:17:16;96015.56;;;-1.15;94.18
67434;BME280;54305;47.950;6.572;2023-02-11T06:19:42;96008.59;;;-1.10;93.46
67434;BME280;54305;47.950;6.572;2023-02-11T06:22:07;95995.41;;;-0.98;90.55
67434;BME280;54305;47.950;6.572;2023-02-11T06:24:32;96002.19;;;-0.97;87.85
67434;BME280;54305;47.950;6.572;2023-02-11T06:26:57;96006.09;;;-0.87;88.09
67434;BME280;54305;47.950;6.572;2023-02-11T06:29:23;96009.84;;;-0.72;85.43
67434;BME280;54305;47.950;6.572;2023-02-11T06:31:48;95993.03;;;-0.79;84.72
67434;BME280;54305;47.950;6.572;2023-02-11T06:34:13;95988.66;;;-0.76;83.57
67434;BME280;54305;47.950;6.572;2023-02-11T06:36:39;95999.38;;;-0.89;84.84
67434;BME280;54305;47.950;6.572;2023-02-11T06:39:05;96003.28;;;-1.04;85.60
67434;BME280;54305;47.950;6.572;2023-02-11T06:41:30;96009.22;;;-1.03;84.64
67434;BME280;54305;47.950;6.572;2023-02-11T06:43:55;96021.06;;;-1.01;84.68
67434;BME280;54305;47.950;6.572;2023-02-11T06:46:21;96014.75;;;-0.91;84.70
67434;BME280;54305;47.950;6.572;2023-02-11T06:48:46;96021.34;;;-0.84;83.61
67434;BME280;54305;47.950;6.572;2023-02-11T06:51:12;96026.75;;;-0.93;85.47
67434;BME280;54305;47.950;6.572;2023-02-11T06:53:39;96032.09;;;-0.99;86.00
67434;BME280;54305;47.950;6.572;2023-02-11T06:56:06;96017.25;;;-0.89;84.31
67434;BME280;54305;47.950;6.572;2023-02-11T06:58:32;96027.91;;;-1.01;85.07
67434;BME280;54305;47.950;6.572;2023-02-11T07:00:57;96018.50;;;-1.01;84.36
67434;BME280;54305;47.950;6.572;2023-02-11T07:03:23;96021.22;;;-1.05;85.86
67434;BME280;54305;47.950;6.572;2023-02-11T07:05:48;96025.50;;;-1.06;86.81
67434;BME280;54305;47.950;6.572;2023-02-11T07:08:13;96038.44;;;-1.10;88.57
67434;BME280;54305;47.950;6.572;2023-02-11T07:10:39;96033.50;;;-1.16;89.53
67434;BME280;54305;47.950;6.572;2023-02-11T07:13:04;96035.63;;;-1.03;89.14
67434;BME280;54305;47.950;6.572;2023-02-11T07:15:30;96051.19;;;-1.09;88.88
67434;BME280;54305;47.950;6.572;2023-02-11T07:17:55;96054.91;;;-1.19;89.88
67434;BME280;54305;47.950;6.572;2023-02-11T07:20:20;96058.34;;;-1.20;91.06
67434;BME280;54305;47.950;6.572;2023-02-11T07:22:45;96059.91;;;-1.16;90.77
67434;BME280;54305;47.950;6.572;2023-02-11T07:25:11;96058.75;;;-1.32;90.46
67434;BME280;54305;47.950;6.572;2023-02-11T07:27:36;96051.22;;;-1.36;91.29
67434;BME280;54305;47.950;6.572;2023-02-11T07:30:01;96059.88;;;-1.40;91.77
67434;BME280;54305;47.950;6.572;2023-02-11T07:32:26;96060.22;;;-1.25;91.16
67434;BME280;54305;47.950;6.572;2023-02-11T07:34:52;96059.72;;;-1.10;89.59
67434;BME280;54305;47.950;6.572;2023-02-11T07:37:18;96067.19;;;-1.04;89.21
67434;BME280;54305;47.950;6.572;2023-02-11T07:39:43;96073.94;;;-1.01;89.90
67434;BME280;54305;47.950;6.572;2023-02-11T07:42:09;96083.22;;;-0.99;90.25
67434;BME280;54305;47.950;6.572;2023-02-11T07:44:34;96083.41;;;-0.79;89.45
67434;BME280;54305;47.950;6.572;2023-02-11T07:47:01;96078.22;;;-0.53;85.68
67434;BME280;54305;47.950;6.572;2023-02-11T07:49:26;96089.81;;;-0.43;86.72
67434;BME280;54305;47.950;6.572;2023-02-11T07:51:51;96099.03;;;-0.39;87.89
67434;BME280;54305;47.950;6.572;2023-02-11T07:54:17;96096.16;;;-0.30;88.32
67434;BME280;54305;47.950;6.572;2023-02-11T07:56:42;96103.53;;;-0.21;89.09
67434;BME280;54305;47.950;6.572;2023-02-11T07:59:09;96110.97;;;-0.15;90.36
67434;BME280;54305;47.950;6.572;2023-02-11T08:01:34;96112.66;;;-0.14;89.88
67434;BME280;54305;47.950;6.572;2023-02-11T08:04:00;96112.91;;;0.03;91.57
67434;BME280;54305;47.950;6.572;2023-02-11T08:06:26;96110.44;;;0.23;90.28
67434;BME280;54305;47.950;6.572;2023-02-11T08:08:52;96105.63;;;0.38;89.26
67434;BME280;54305;47.950;6.572;2023-02-11T08:11:19;96109.69;;;0.64;84.03
67434;BME280;54305;47.950;6.572;2023-02-11T08:13:45;96108.53;;;0.73;85.95
67434;BME280;54305;47.950;6.572;2023-02-11T08:18:42;96111.84;;;0.97;85.03
67434;BME280;54305;47.950;6.572;2023-02-11T08:21:08;96114.00;;;1.07;83.70
67434;BME280;54305;47.950;6.572;2023-02-11T08:23:40;96106.03;;;1.13;85.99
67434;BME280;54305;47.950;6.572;2023-02-11T08:26:07;96110.75;;;1.24;86.49
67434;BME280;54305;47.950;6.572;2023-02-11T08:28:36;96117.03;;;1.37;86.87
67434;BME280;54305;47.950;6.572;2023-02-11T08:31:05;96111.50;;;1.46;86.88
67434;BME280;54305;47.950;6.572;2023-02-11T08:33:31;96105.72;;;1.61;84.55
67434;BME280;54305;47.950;6.572;2023-02-11T08:35:56;96102.03;;;1.68;82.50
67434;BME280;54305;47.950;6.572;2023-02-11T08:38:21;96101.34;;;1.83;79.51
67434;BME280;54305;47.950;6.572;2023-02-11T08:40:46;96097.50;;;1.93;81.59
67434;BME280;54305;47.950;6.572;2023-02-11T08:43:13;96104.41;;;2.11;79.98
67434;BME280;54305;47.950;6.572;2023-02-11T08:45:38;96104.34;;;2.31;80.59
67434;BME280;54305;47.950;6.572;2023-02-11T08:48:03;96093.97;;;2.51;80.88
67434;BME280;54305;47.950;6.572;2023-02-11T08:50:28;96099.25;;;2.66;78.85
67434;BME280;54305;47.950;6.572;2023-02-11T08:52:54;96101.13;;;2.81;75.95
67434;BME280;54305;47.950;6.572;2023-02-11T08:55:19;96099.25;;;3.02;75.36
67434;BME280;54305;47.950;6.572;2023-02-11T08:57:45;96109.50;;;3.20;76.14
67434;BME280;54305;47.950;6.572;2023-02-11T09:00:10;96102.47;;;3.24;74.91
67434;BME280;54305;47.950;6.572;2023-02-11T09:02:35;96097.84;;;3.30;74.99
67434;BME280;54305;47.950;6.572;2023-02-11T09:05:01;96100.78;;;3.40;76.29
67434;BME280;54305;47.950;6.572;2023-02-11T09:07:26;96090.50;;;3.57;74.05
67434;BME280;54305;47.950;6.572;2023-02-11T09:09:52;96106.47;;;3.46;74.73
67434;BME280;54305;47.950;6.572;2023-02-11T09:12:17;96090.94;;;3.65;74.29
67434;BME280;54305;47.950;6.572;2023-02-11T09:14:42;96102.22;;;4.12;76.21
67434;BME280;54305;47.950;6.572;2023-02-11T09:17:08;96097.66;;;4.80;75.50
67434;BME280;54305;47.950;6.572;2023-02-11T09:19:33;96107.50;;;5.19;72.88
67434;BME280;54305;47.950;6.572;2023-02-11T09:21:58;96093.16;;;5.58;70.68
67434;BME280;54305;47.950;6.572;2023-02-11T09:24:23;96090.03;;;5.97;70.28
67434;BME280;54305;47.950;6.572;2023-02-11T09:26:49;96083.94;;;5.84;68.64
67434;BME280;54305;47.950;6.572;2023-02-11T09:29:14;96082.19;;;5.55;70.85
67434;BME280;54305;47.950;6.572;2023-02-11T09:31:39;96091.63;;;5.70;71.55
67434;BME280;54305;47.950;6.572;2023-02-11T09:34:05;96094.44;;;5.81;72.35
67434;BME280;54305;47.950;6.572;2023-02-11T09:36:32;96095.19;;;5.97;72.15
67434;BME280;54305;47.950;6.572;2023-02-11T09:38:58;96101.78;;;6.02;70.93
67434;BME280;54305;47.950;6.572;2023-02-11T09:44:05;96092.25;;;6.45;70.23
67434;BME280;54305;47.950;6.572;2023-02-11T09:46:33;96091.31;;;7.00;69.34
67434;BME280;54305;47.950;6.572;2023-02-11T09:48:59;96080.94;;;7.66;66.47
67434;BME280;54305;47.950;6.572;2023-02-11T09:52:00;96090.31;;;7.81;66.19
67434;BME280;54305;47.950;6.572;2023-02-11T09:54:18;96081.97;;;7.63;65.49
67434;BME280;54305;47.950;6.572;2023-02-11T09:56:45;96086.75;;;7.57;65.30
67434;BME280;54305;47.950;6.572;2023-02-11T09:59:12;96083.47;;;7.80;66.03
67434;BME280;54305;47.950;6.572;2023-02-11T10:01:40;96089.69;;;7.77;63.67
67434;BME280;54305;47.950;6.572;2023-02-11T10:06:44;96096.97;;;8.60;60.34
67434;BME280;54305;47.950;6.572;2023-02-11T10:16:55;96109.00;;;6.53;64.94
67434;BME280;54305;47.950;6.572;2023-02-11T10:24:22;96106.88;;;6.46;67.76
67434;BME280;54305;47.950;6.572;2023-02-11T10:26:52;96108.50;;;6.75;67.19
67434;BME280;54305;47.950;6.572;2023-02-11T10:31:42;96095.63;;;7.92;60.25
67434;BME280;54305;47.950;6.572;2023-02-11T10:34:11;96105.31;;;8.15;61.30
67434;BME280;54305;47.950;6.572;2023-02-11T10:36:37;96103.81;;;8.73;59.87
67434;BME280;54305;47.950;6.572;2023-02-11T10:39:14;96105.25;;;9.95;58.18
67434;BME280;54305;47.950;6.572;2023-02-11T10:41:43;96098.63;;;11.02;54.58
67434;BME280;54305;47.950;6.572;2023-02-11T10:44:13;96099.66;;;11.53;52.75
67434;BME280;54305;47.950;6.572;2023-02-11T10:46:44;96099.19;;;12.11;49.83
67434;BME280;54305;47.950;6.572;2023-02-11T10:49:09;96096.31;;;12.85;48.49
67434;BME280;54305;47.950;6.572;2023-02-11T10:52:09;96091.47;;;12.51;48.46
67434;BME280;54305;47.950;6.572;2023-02-11T10:54:36;96088.06;;;13.39;48.67
67434;BME280;54305;47.950;6.572;2023-02-11T10:57:01;96088.63;;;13.52;44.81
67434;BME280;54305;47.950;6.572;2023-02-11T10:59:36;96081.84;;;13.40;46.11
67434;BME280;54305;47.950;6.572;2023-02-11T11:02:20;96086.16;;;13.69;44.03
67434;BME280;54305;47.950;6.572;2023-02-11T11:04:47;96073.63;;;13.92;45.28
67434;BME280;54305;47.950;6.572;2023-02-11T11:14:59;96047.75;;;14.44;43.07
67434;BME280;54305;47.950;6.572;2023-02-11T11:17:25;96049.84;;;14.77;42.00
67434;BME280;54305;47.950;6.572;2023-02-11T11:20:13;96044.78;;;15.47;40.83
67434;BME280;54305;47.950;6.572;2023-02-11T11:22:39;96040.84;;;15.07;40.53
67434;BME280;54305;47.950;6.572;2023-02-11T11:25:05;96039.56;;;15.38;40.43
67434;BME280;54305;47.950;6.572;2023-02-11T11:27:46;96032.75;;;16.23;39.11
67434;BME280;54305;47.950;6.572;2023-02-11T11:30:14;96035.22;;;16.75;38.89
67434;BME280;54305;47.950;6.572;2023-02-11T11:32:40;96027.69;;;17.22;36.95
67434;BME280;54305;47.950;6.572;2023-02-11T11:35:27;96026.81;;;17.47;36.90
67434;BME280;54305;47.950;6.572;2023-02-11T11:37:52;96035.41;;;18.13;35.12
67434;BME280;54305;47.950;6.572;2023-02-11T11:42:44;96019.75;;;18.35;34.25
67434;BME280;54305;47.950;6.572;2023-02-11T11:47:47;96018.53;;;19.47;33.19
67434;BME280;54305;47.950;6.572;2023-02-11T11:50:34;96014.69;;;19.80;31.79
67434;BME280;54305;47.950;6.572;2023-02-11T11:55:50;96001.63;;;19.78;31.96
67434;BME280;54305;47.950;6.572;2023-02-11T11:58:19;95995.56;;;20.52;30.94
67434;BME280;54305;47.950;6.572;2023-02-11T12:00:53;95984.22;;;20.29;29.93
67434;BME280;54305;47.950;6.572;2023-02-11T12:09:11;95976.63;;;21.28;29.40
67434;BME280;54305;47.950;6.572;2023-02-11T12:22:50;95969.97;;;22.43;26.98
67434;BME280;54305;47.950;6.572;2023-02-11T12:32:54;95961.28;;;22.83;26.12
67434;BME280;54305;47.950;6.572;2023-02-11T12:48:59;95955.94;;;17.20;33.52
67434;BME280;54305;47.950;6.572;2023-02-11T12:51:19;95943.97;;;18.98;29.90
67434;BME280;54305;47.950;6.572;2023-02-11T12:56:17;95945.06;;;20.02;27.12
67434;BME280;54305;47.950;6.572;2023-02-11T12:58:45;95943.69;;;20.14;26.78
67434;BME280;54305;47.950;6.572;2023-02-11T13:01:15;95953.06;;;17.47;29.98
67434;BME280;54305;47.950;6.572;2023-02-11T13:03:44;95939.13;;;18.25;29.56
67434;BME280;54305;47.950;6.572;2023-02-11T13:06:14;95942.97;;;18.69;28.65
67434;BME280;54305;47.950;6.572;2023-02-11T13:08:43;95941.97;;;17.91;29.02
67434;BME280;54305;47.950;6.572;2023-02-11T13:13:45;95945.19;;;15.71;32.89
67434;BME280;54305;47.950;6.572;2023-02-11T13:18:51;95944.69;;;13.98;36.45
67434;BME280;54305;47.950;6.572;2023-02-11T13:24:08;95933.50;;;14.96;36.49
67434;BME280;54305;47.950;6.572;2023-02-11T13:26:50;95939.81;;;16.32;36.82
67434;BME280;54305;47.950;6.572;2023-02-11T13:31:51;95935.34;;;15.99;37.39
67434;BME280;54305;47.950;6.572;2023-02-11T13:34:53;95930.13;;;16.66;35.60
67434;BME280;54305;47.950;6.572;2023-02-11T13:37:21;95925.81;;;15.72;36.02
67434;BME280;54305;47.950;6.572;2023-02-11T13:42:22;95943.81;;;12.36;44.32
67434;BME280;54305;47.950;6.572;2023-02-11T13:44:47;95943.38;;;12.80;42.99
67434;BME280;54305;47.950;6.572;2023-02-11T13:47:22;95938.34;;;11.79;45.43
67434;BME280;54305;47.950;6.572;2023-02-11T13:49:49;95942.44;;;11.72;47.06
67434;BME280;54305;47.950;6.572;2023-02-11T13:52:31;95938.72;;;11.54;46.91
67434;BME280;54305;47.950;6.572;2023-02-11T13:57:37;95937.22;;;12.90;45.82
67434;BME280;54305;47.950;6.572;2023-02-11T14:00:48;95935.72;;;13.07;45.97
67434;BME280;54305;47.950;6.572;2023-02-11T14:03:13;95932.84;;;12.42;47.44
67434;BME280;54305;47.950;6.572;2023-02-11T14:08:58;95941.13;;;11.25;51.57
67434;BME280;54305;47.950;6.572;2023-02-11T14:16:51;95942.28;;;11.94;50.29
67434;BME280;54305;47.950;6.572;2023-02-11T14:22:03;95937.63;;;10.84;53.27
67434;BME280;54305;47.950;6.572;2023-02-11T14:29:32;95932.13;;;10.98;53.67
67434;BME280;54305;47.950;6.572;2023-02-11T14:32:26;95923.47;;;11.29;53.13
67434;BME280;54305;47.950;6.572;2023-02-11T14:37:37;95922.22;;;12.83;47.88
67434;BME280;54305;47.950;6.572;2023-02-11T14:42:48;95922.44;;;11.82;50.44
67434;BME280;54305;47.950;6.572;2023-02-11T14:45:17;95931.84;;;11.12;52.53
67434;BME280;54305;47.950;6.572;2023-02-11T14:47:50;95935.91;;;11.05;53.13
67434;BME280;54305;47.950;6.572;2023-02-11T14:50:30;95928.88;;;9.98;55.59
67434;BME280;54305;47.950;6.572;2023-02-11T14:52:57;95936.78;;;9.64;56.96
67434;BME280;54305;47.950;6.572;2023-02-11T14:58:03;95939.63;;;9.61;57.92
67434;BME280;54305;47.950;6.572;2023-02-11T15:00:28;95938.66;;;9.40;59.01
67434;BME280;54305;47.950;6.572;2023-02-11T15:02:54;95937.66;;;9.30;59.13
67434;BME280;54305;47.950;6.572;2023-02-11T15:05:21;95945.38;;;8.97;59.90
67434;BME280;54305;47.950;6.572;2023-02-11T15:07:54;95947.22;;;8.48;62.60
67434;BME280;54305;47.950;6.572;2023-02-11T15:10:23;95949.81;;;8.60;62.75
67434;BME280;54305;47.950;6.572;2023-02-11T15:12:50;95947.25;;;9.06;61.07
67434;BME280;54305;47.950;6.572;2023-02-11T15:15:15;95943.81;;;8.71;61.77
67434;BME280;54305;47.950;6.572;2023-02-11T15:17:41;95945.06;;;8.78;62.46
67434;BME280;54305;47.950;6.572;2023-02-11T15:20:18;95942.28;;;8.45;62.93
67434;BME280;54305;47.950;6.572;2023-02-11T15:22:45;95934.06;;;7.90;65.29
67434;BME280;54305;47.950;6.572;2023-02-11T15:25:12;95942.50;;;7.56;66.96
67434;BME280;54305;47.950;6.572;2023-02-11T15:27:42;95945.31;;;7.28;68.17